Latest Coastal Weather Observations for Cerberus

IDV60701

Issued at 12:42 pm EST Tuesday 25 July 2017 (issued every 10 minutes, with the page automatically refreshed every 10 minutes)

About coastal observations | Map of coastal stations | Coastal observations for VIC | Marine services | Other Formats
Station Details ID: 086361 Name: CERBERUS Lat: -38.36 Lon: 145.18 Height: 12.69 m
Data from the previous 72 hours. | See also: Recent months at Cerberus
Date/Time
EST
Temp
°C
Wind Pressure Rain since
9am
mm
Weather Cloud Vis
km
Sea
Height
m
Swell
Dir  Spd
kts
Gust
kts
hPa Trend Height
m
Period
s
Dir
25/12:30pm 14.7 NNW 12 21 1012.1 - 1.0 - - - - - - -
25/12:00pm 11.9 N 9 16 1013.0 - 1.0 Recent precip. - - - - - -
25/11:30am 12.4 NNW 9 17 1013.8 - 0.6 - - - - - - -
25/11:00am 11.9 NNW 11 17 1014.6 - 0.6 - - - - - - -
25/10:30am 14.6 NNW 10 19 1014.9 - 0.0 - - - - - - -
25/10:00am 14.1 N 7 14 1015.0 - 0.0 - - - - - - -
25/09:30am 12.8 NNE 5 9 1015.3 - 0.0 - - - - - - -
25/09:00am 12.3 NNE 5 10 1015.6 - 0.2 - - - - - - -
25/08:30am 11.4 N 5 10 1015.6 - 0.2 - - - - - - -
25/08:00am 10.1 N 5 9 1015.5 - 0.2 - - - - - - -
25/07:30am 9.8 N 6 10 1015.3 - 0.2 - - - - - - -
25/07:00am 10.2 N 9 15 1015.2 - 0.2 - - - - - - -
25/06:30am 10.3 NNW 9 16 1015.3 - 0.2 - - - - - - -
25/06:00am 10.4 NNW 9 15 1015.5 - 0.2 - - - - - - -
25/05:30am 10.6 NNW 11 20 1015.5 - 0.2 - - - - - - -
25/05:00am 10.9 NNW 12 21 1015.4 - 0.2 - - - - - - -
25/04:30am 10.8 NNW 9 17 1015.6 - 0.2 - - - - - - -
25/04:00am 10.8 NNW 8 16 1015.8 - 0.2 - - - - - - -
25/03:30am 10.8 NNW 7 13 1016.2 - 0.2 - - - - - - -
25/03:00am 10.7 NNW 8 15 1016.4 - 0.2 - - - - - - -
25/02:30am 10.9 NNW 9 18 1016.7 - 0.2 - - - - - - -
25/02:00am 10.8 NNW 8 14 1017.0 - 0.2 - - - - - - -
25/01:30am 10.9 NNW 7 13 1017.2 - 0.2 - - - - - - -
25/01:00am 10.5 NNW 7 12 1017.3 - 0.2 - - - - - - -
25/12:30am 10.4 NNW 6 9 1017.5 - 0.2 - - - - - - -
25/12:00am 10.4 NNW 4 9 1017.9 - 0.2 - - - - - - -
 
Date/Time
EST
Temp
°C
Wind Pressure Rain since
9am
mm
Weather Cloud Vis
km
Sea
Height
m
Swell
Dir  Spd
kts
Gust
kts
hPa Trend Height
m
Period
s
Dir
24/11:30pm 10.0 NNW 5 9 1018.0 - 0.2 - - - - - - -
24/11:00pm 10.3 NNW 7 11 1018.3 - 0.2 - - - - - - -
24/10:30pm 10.4 NNW 7 12 1018.3 - 0.2 - - - - - - -
24/10:00pm 10.3 NNW 5 11 1018.4 - 0.2 - - - - - - -
24/09:30pm 10.3 NNW 5 8 1018.5 - 0.2 - - - - - - -
24/09:00pm 9.8 NNW 3 5 1018.4 - 0.2 Recent precip. - - - - - -
24/08:30pm 8.1 NNW 3 5 1018.4 - 0.2 - - - - - - -
24/08:00pm 8.1 NNW 3 5 1018.3 - 0.0 - - - - - - -
24/07:30pm 8.4 NW 3 4 1018.1 - 0.0 - - - - - - -
24/07:00pm 8.5 NW 2 3 1018.1 - 0.0 - - - - - - -
24/06:30pm 9.2 NW 1 3 1018.0 - 0.0 - - - - - - -
24/06:00pm 10.0 NNW 2 4 1017.8 - 0.0 - - - - - - -
24/05:30pm 10.7 NW 3 4 1017.7 - 0.0 - - - - - - -
24/05:00pm 12.4 NW 3 7 1017.5 - 0.0 - - - - - - -
24/04:30pm 12.3 NW 4 7 1017.6 - 0.0 - - - - - - -
24/04:00pm 12.0 NW 5 9 1017.7 - 0.0 - - - - - - -
24/03:30pm 12.1 NW 6 9 1017.8 - 0.0 - - - - - - -
24/03:00pm 12.9 NW 6 9 1017.6 - 0.0 - - - - - - -
24/02:30pm 12.9 NW 8 12 1017.7 - 0.0 - - - - - - -
24/02:00pm 13.5 NW 9 13 1018.0 - 0.0 - - - - - - -
24/01:30pm 13.4 NW 7 11 1018.4 - 0.0 - - - - - - -
24/01:00pm 13.1 NW 9 15 1018.5 - 0.0 - - - - - - -
24/12:30pm 12.8 WNW 10 15 1018.8 - 0.0 - - - - - - -
24/12:00pm 12.3 NW 9 13 1019.0 - 0.0 - - - - - - -
24/11:30am 11.8 WNW 9 14 1019.3 - 0.0 - - - - - - -
24/11:00am 11.4 WNW 9 16 1019.7 - 0.0 - - - - - - -
24/10:30am 10.7 NW 8 13 1019.7 - 0.0 - - - - - - -
24/10:00am 10.2 NW 8 13 1019.7 - 0.0 - - - - - - -
24/09:30am 10.4 NW 6 9 1019.5 - 0.0 - - - - - - -
24/09:00am 9.3 NW 5 7 1019.1 - 7.0 - - - - - - -
24/08:30am 8.8 NNW 3 5 1018.7 - 7.0 - - - - - - -
24/08:00am 8.4 NW 5 9 1018.6 - 7.0 - - - - - - -
24/07:30am 8.0 NNW 3 6 1018.2 - 7.0 - - - - - - -
24/07:00am 8.2 NW 5 8 1018.0 - 7.0 - - - - - - -
24/06:30am 8.6 NW 6 12 1017.9 - 7.0 - - - - - - -
24/06:00am 8.6 WNW 8 13 1017.5 - 7.0 - - - - - - -
24/05:30am 8.6 NW 7 10 1017.2 - 7.0 - - - - - - -
24/05:00am 8.8 WNW 8 11 1016.9 - 7.0 - - - - - - -
24/04:30am 8.8 NW 6 11 1016.8 - 7.0 - - - - - - -
24/04:00am 9.0 WNW 6 10 1016.6 - 7.0 - - - - - - -
24/03:30am 9.2 NW 5 9 1016.4 - 7.0 - - - - - - -
24/03:00am 9.0 NW 4 5 1016.4 - 6.8 - - - - - - -
24/02:30am 9.1 W 3 4 1016.2 - 6.8 - - - - - - -
24/02:00am 9.4 WNW 4 7 1016.2 - 6.8 - - - - - - -
24/01:30am 9.5 WNW 5 7 1016.1 - 6.6 - - - - - - -
24/01:00am 9.6 WNW 3 5 1016.0 - 6.2 - - - - - - -
24/12:30am 9.4 W 4 6 1016.0 - 4.8 - - - - - - -
24/12:00am 9.4 NW 6 9 1015.7 - 4.6 - - - - - - -
 
Date/Time
EST
Temp
°C
Wind Pressure Rain since
9am
mm
Weather Cloud Vis
km
Sea
Height
m
Swell
Dir  Spd
kts
Gust
kts
hPa Trend Height
m
Period
s
Dir
23/11:30pm 8.9 NW 4 6 1015.4 - 4.6 - - - - - - -
23/11:00pm 8.5 NW 4 5 1015.5 - 4.6 - - - - - - -
23/10:30pm 8.1 NNW 3 4 1015.4 - 4.6 - - - - - - -
23/10:00pm 8.7 NW 5 8 1015.1 - 4.6 - - - - - - -
23/09:30pm 8.8 NW 5 7 1014.8 - 4.6 - - - - - - -
23/09:00pm 8.5 NW 3 5 1014.6 - 4.6 - - - - - - -
23/08:30pm 8.4 NNW 3 5 1014.1 - 4.6 - - - - - - -
23/08:00pm 9.0 NW 3 5 1013.9 - 4.6 - - - - - - -
23/07:30pm 9.9 WNW 3 4 1013.7 - 4.6 - - - - - - -
23/07:00pm 10.0 W 3 4 1013.2 - 4.4 - - - - - - -
23/06:30pm 10.1 W 3 4 1012.8 - 4.4 - - - - - - -
23/06:00pm 10.5 WNW 4 7 1012.4 - 4.4 Recent precip. - - - - - -
23/05:30pm 11.3 W 5 12 1012.3 - 3.2 - - - - - - -
23/05:00pm 11.9 WNW 7 11 1011.7 - 3.0 - - - - - - -
23/04:30pm 12.4 WNW 7 11 1011.1 - 3.0 - - - - - - -
23/04:00pm 12.6 WNW 7 11 1010.9 - 3.0 - - - - - - -
23/03:30pm 12.2 WNW 7 10 1010.6 - 3.0 - - - - - - -
23/03:00pm 11.3 WNW 7 11 1010.5 - 3.0 Recent precip. - - - - - -
23/02:30pm 11.1 NW 9 14 1010.4 - 3.0 - - - - - - -
23/02:00pm 10.4 NW 7 10 1010.4 - 1.8 - - - - - - -
23/01:30pm 10.3 NNW 7 13 1010.2 - 1.4 - - - - - - -
23/01:00pm 10.6 NNW 8 13 1010.7 - 1.2 - - - - - - -
23/12:30pm 11.3 NW 8 16 1010.8 - 0.8 - - - - - - -
23/12:00pm 11.3 NW 9 17 1011.1 - 0.6 Rain - - - - - -
23/11:30am 13.7 NNW 9 15 1011.1 - 0.0 - - - - - - -
23/11:00am 13.6 NNW 10 15 1011.4 - 0.0 - - - - - - -
23/10:30am 12.5 NNW 9 17 1011.6 - 0.0 - - - - - - -
23/10:00am 11.7 NNW 9 18 1011.4 - 0.0 - - - - - - -
23/09:30am 11.5 NNW 9 17 1011.2 - 0.0 - - - - - - -
23/09:00am 11.2 NNW 8 16 1011.0 - 0.0 - - - - - - -
23/08:30am 10.9 NNW 8 16 1010.7 - 0.0 - - - - - - -
23/08:00am 10.5 NW 7 15 1010.6 - 0.0 - - - - - - -
23/07:30am 10.5 NW 8 15 1010.5 - 0.0 - - - - - - -
23/07:00am 10.9 NNW 11 20 1010.0 - 0.0 - - - - - - -
23/06:30am 11.2 NNW 12 21 1009.5 - 0.0 - - - - - - -
23/06:00am 11.5 NNW 14 25 1009.3 - 0.0 - - - - - - -
23/05:30am 11.6 NNW 13 21 1009.3 - 0.0 - - - - - - -
23/05:01am 12.1 NNW 15 25 1009.3 - 0.0 - - - - - - -
23/05:00am 12.1 NNW 14 24 1009.3 - 0.0 - - - - - - -
23/04:30am 12.0 NNW 15 26 1009.1 - 0.0 - - - - - - -
23/04:00am 11.9 NNW 15 27 1009.3 - 0.0 - - - - - - -
23/03:30am 12.2 NNW 16 27 1009.2 - 0.0 - - - - - - -
23/03:00am 12.2 NNW 16 29 1009.5 - 0.0 - - - - - - -
23/02:30am 12.2 NNW 15 27 1009.9 - 0.0 - - - - - - -
23/02:11am 12.2 NNW 15 27 1009.9 - 0.0 - - - - - - -
23/02:00am 12.0 NNW 14 24 1010.1 - 0.0 - - - - - - -
23/01:30am 11.6 NNW 13 24 1010.7 - 0.0 - - - - - - -
23/01:00am 10.9 N 11 19 1011.2 - 0.0 - - - - - - -
23/12:30am 11.1 N 13 25 1011.5 - 0.0 - - - - - - -
23/12:00am 11.1 N 12 27 1011.5 - 0.0 - - - - - - -
 
Date/Time
EST
Temp
°C
Wind Pressure Rain since
9am
mm
Weather Cloud Vis
km
Sea
Height
m
Swell
Dir  Spd
kts
Gust
kts
hPa Trend Height
m
Period
s
Dir
22/11:30pm 10.7 N 9 18 1012.0 - 0.0 - - - - - - -
22/11:00pm 10.6 N 9 15 1012.5 - 0.0 - - - - - - -
22/10:30pm 10.5 N 6 16 1012.8 - 0.0 - - - - - - -
22/10:00pm 10.8 N 8 15 1013.2 - 0.0 - - - - - - -
22/09:30pm 11.0 NNW 11 21 1013.3 - 0.0 - - - - - - -
22/09:00pm 11.2 NNW 13 22 1013.0 - 0.0 - - - - - - -
22/08:30pm 11.2 NNW 14 23 1013.0 - 0.0 - - - - - - -
22/08:16pm 11.4 NNW 15 26 1013.1 - 0.0 - - - - - - -
22/08:00pm 11.2 NNW 10 25 1013.2 - 0.0 - - - - - - -
22/07:30pm 11.7 NNW 11 25 1012.9 - 0.0 - - - - - - -
22/07:00pm 11.6 NNW 10 18 1013.2 - 0.0 - - - - - - -
22/06:30pm 11.5 NNW 7 14 1013.1 - 0.0 - - - - - - -
22/06:00pm 11.0 N 4 11 1013.3 - 0.0 - - - - - - -
22/05:30pm 11.1 NNW 6 11 1013.5 - 0.0 - - - - - - -
22/05:00pm 11.5 NNW 7 13 1013.5 - 0.0 - - - - - - -
22/04:30pm 11.5 NNW 8 15 1013.4 - 0.0 - - - - - - -
22/04:00pm 11.8 N 6 11 1013.6 - 0.0 - - - - - - -
22/03:30pm 12.7 N 9 20 1013.7 - 0.0 - - - - - - -
22/03:00pm 13.3 NNW 10 21 1013.9 - 0.0 - - - - - - -
22/02:30pm 13.0 NNW 10 19 1014.2 - 0.0 - - - - - - -
22/02:00pm 12.7 N 12 22 1013.9 - 0.0 - - - - - - -
22/01:31pm 12.3 N 15 27 1013.9 - 0.0 - - - - - - -
22/01:30pm 12.3 N 14 27 1013.9 - 0.0 - - - - - - -
22/01:28pm 12.1 N 15 27 1014.0 - 0.0 - - - - - - -
22/01:00pm 11.8 N 13 24 1014.5 - 0.0 - - - - - - -

Other Formats:

Comma delimited format used in spreadsheet applications
http://www.bom.gov.au/fwo/IDV60701/IDV60701.94898.axf

JavaScript Object Notation format (JSON) in row-major order
http://www.bom.gov.au/fwo/IDV60701/IDV60701.94898.json